createdAt,value
2022-08-28T00:00:15.594Z,100734.09
2022-08-28T00:02:42.980Z,100731.44
2022-08-28T00:05:11.627Z,100739.41
2022-08-28T00:07:39.032Z,100735.88
2022-08-28T00:10:08.520Z,100733.22
2022-08-28T00:12:36.548Z,100730.59
2022-08-28T00:15:09.785Z,100735.03
2022-08-28T00:17:40.186Z,100734.16
2022-08-28T00:20:09.696Z,100738.59
2022-08-28T00:22:38.419Z,100739.47
2022-08-28T00:25:07.312Z,100735.03
2022-08-28T00:27:52.313Z,100731.50
2022-08-28T00:30:34.284Z,100737.72
2022-08-28T00:33:05.444Z,100738.63
2022-08-28T00:35:32.172Z,100741.28
2022-08-28T00:37:59.347Z,100736.88
2022-08-28T00:40:32.532Z,100749.31
2022-08-28T00:43:03.098Z,100744.00
2022-08-28T00:45:33.862Z,100748.44
2022-08-28T00:48:02.790Z,100746.66
2022-08-28T00:50:56.704Z,100743.13
2022-08-28T00:53:32.760Z,100741.38
2022-08-28T00:56:04.205Z,100742.25
2022-08-28T00:58:33.987Z,100740.47
2022-08-28T01:01:00.808Z,100739.59
2022-08-28T01:03:28.410Z,100739.56
2022-08-28T01:05:55.632Z,100736.94
2022-08-28T01:08:23.021Z,100741.38
2022-08-28T01:10:54.131Z,100742.28
2022-08-28T01:13:21.096Z,100732.50
2022-08-28T01:15:49.770Z,100736.09
2022-08-28T01:18:17.610Z,100736.94
2022-08-28T01:20:59.601Z,100737.88
2022-08-28T01:23:42.504Z,100741.41
2022-08-28T01:26:11.004Z,100738.75
2022-08-28T01:28:39.433Z,100743.22
2022-08-28T01:31:08.812Z,100744.09
2022-08-28T01:33:35.308Z,100742.31
2022-08-28T01:36:02.152Z,100752.06
2022-08-28T01:38:28.686Z,100746.75
2022-08-28T01:40:57.741Z,100750.28
2022-08-28T01:43:26.283Z,100750.28
2022-08-28T01:45:57.581Z,100754.72
2022-08-28T01:48:26.109Z,100752.06
2022-08-28T01:50:53.054Z,100749.41
2022-08-28T01:53:24.929Z,100754.75
2022-08-28T01:55:53.447Z,100748.56
2022-08-28T01:58:21.152Z,100752.97
2022-08-28T02:00:48.009Z,100752.97
2022-08-28T02:03:15.201Z,100744.97
2022-08-28T02:05:42.240Z,100750.31
2022-08-28T02:08:08.958Z,100753.00
2022-08-28T02:10:38.203Z,100748.53
2022-08-28T02:13:06.235Z,100759.19
2022-08-28T02:15:35.125Z,100756.50
2022-08-28T02:18:02.059Z,100755.63
2022-08-28T02:20:29.318Z,100757.38
2022-08-28T02:22:57.933Z,100757.34
2022-08-28T02:25:25.514Z,100759.16
2022-08-28T02:27:52.014Z,100761.81
2022-08-28T02:30:19.308Z,100764.44
2022-08-28T02:32:46.638Z,100765.34
2022-08-28T02:35:15.827Z,100768.00
2022-08-28T02:37:44.350Z,100767.09
2022-08-28T02:40:16.443Z,100760.03
2022-08-28T02:42:44.640Z,100756.47
2022-08-28T02:45:13.488Z,100755.59
2022-08-28T02:47:42.434Z,100757.38
2022-08-28T02:50:12.964Z,100752.97
2022-08-28T02:52:40.602Z,100755.59
2022-08-28T02:55:08.961Z,100752.94
2022-08-28T02:57:35.606Z,100750.25
2022-08-28T03:00:05.217Z,100750.25
2022-08-28T03:02:31.900Z,100755.56
2022-08-28T03:04:59.801Z,100751.13
2022-08-28T03:07:29.225Z,100755.56
2022-08-28T03:09:56.404Z,100755.56
2022-08-28T03:12:25.802Z,100763.56
2022-08-28T03:14:53.009Z,100756.44
2022-08-28T03:17:20.150Z,100766.19
2022-08-28T03:19:46.929Z,100771.50
2022-08-28T03:22:13.444Z,100764.38
2022-08-28T03:24:39.952Z,100766.19
2022-08-28T03:27:06.547Z,100762.63
2022-08-28T03:29:33.074Z,100770.59
2022-08-28T03:32:00.305Z,100769.75
2022-08-28T03:34:27.027Z,100767.06
2022-08-28T03:36:53.593Z,100767.06
2022-08-28T03:39:20.232Z,100754.66
2022-08-28T03:41:46.726Z,100756.44
2022-08-28T03:44:13.506Z,100761.75
2022-08-28T03:46:40.024Z,100762.63
2022-08-28T03:49:06.498Z,100769.72
2022-08-28T03:51:34.392Z,100770.59
2022-08-28T03:54:03.087Z,100770.59
2022-08-28T03:56:30.950Z,100768.81
2022-08-28T03:59:00.505Z,100770.59
2022-08-28T04:01:27.695Z,100768.78
2022-08-28T04:03:54.433Z,100779.44
2022-08-28T04:06:21.204Z,100780.31
2022-08-28T04:08:47.976Z,100782.09
2022-08-28T04:11:14.995Z,100782.97
2022-08-28T04:13:41.968Z,100786.50
2022-08-28T04:16:11.302Z,100787.38
2022-08-28T04:18:42.488Z,100787.38
2022-08-28T04:21:16.422Z,100780.28
2022-08-28T04:23:44.979Z,100776.75
2022-08-28T04:26:18.334Z,100777.59
2022-08-28T04:28:46.705Z,100784.69
2022-08-28T04:31:15.021Z,100776.72
2022-08-28T04:33:41.945Z,100781.16
2022-08-28T04:36:13.049Z,100785.56
2022-08-28T04:38:43.937Z,100781.13
2022-08-28T04:41:15.161Z,100787.34
2022-08-28T04:43:42.629Z,100776.72
2022-08-28T04:46:13.220Z,100781.13
2022-08-28T04:48:40.891Z,100789.09
2022-08-28T04:51:09.411Z,100787.34
2022-08-28T04:53:38.176Z,100792.66
2022-08-28T04:56:07.296Z,100790.00
2022-08-28T04:58:34.287Z,100792.66
2022-08-28T05:01:10.968Z,100786.47
2022-08-28T05:03:37.504Z,100797.09
2022-08-28T05:06:04.592Z,100790.91
2022-08-28T05:08:31.980Z,100798.00
2022-08-28T05:11:08.498Z,100795.34
2022-08-28T05:13:35.202Z,100795.38
2022-08-28T05:16:03.898Z,100803.34
2022-08-28T05:18:30.420Z,100797.19
2022-08-28T05:20:57.546Z,100799.84
2022-08-28T05:23:25.621Z,100807.84
2022-08-28T05:25:52.434Z,100810.50
2022-08-28T05:28:19.081Z,100814.06
2022-08-28T05:30:46.158Z,100810.53
2022-08-28T05:33:14.514Z,100816.75
2022-08-28T05:35:43.963Z,100808.78
2022-08-28T05:38:13.417Z,100815.88
2022-08-28T05:40:43.449Z,100807.94
2022-08-28T05:43:11.603Z,100813.31
2022-08-28T05:45:38.149Z,100810.63
2022-08-28T05:48:05.137Z,100815.09
2022-08-28T05:50:31.692Z,100817.75
2022-08-28T05:52:58.231Z,100811.56
2022-08-28T05:55:24.845Z,100817.75
2022-08-28T05:57:51.314Z,100811.53
2022-08-28T06:00:18.397Z,100815.97
2022-08-28T06:02:45.033Z,100819.53
2022-08-28T06:05:12.632Z,100831.03
2022-08-28T06:07:44.045Z,100825.72
2022-08-28T06:10:10.844Z,100822.16
2022-08-28T06:12:38.148Z,100818.63
2022-08-28T06:15:06.022Z,100823.91
2022-08-28T06:17:32.658Z,100823.94
2022-08-28T06:19:59.370Z,100824.78
2022-08-28T06:22:25.938Z,100831.91
2022-08-28T06:24:53.902Z,100837.22
2022-08-28T06:27:20.542Z,100838.97
2022-08-28T06:29:47.195Z,100843.41
2022-08-28T06:32:13.799Z,100846.09
2022-08-28T06:34:40.636Z,100846.03
2022-08-28T06:37:08.797Z,100852.28
2022-08-28T06:39:35.518Z,100845.13
2022-08-28T06:42:02.185Z,100850.44
2022-08-28T06:44:28.913Z,100843.28
2022-08-28T06:46:55.719Z,100850.31
2022-08-28T06:49:22.500Z,100851.97
2022-08-28T06:51:49.573Z,100846.53
2022-08-28T06:54:22.306Z,100852.69
2022-08-28T06:56:50.925Z,100861.50
2022-08-28T06:59:17.508Z,100858.75
2022-08-28T07:01:44.269Z,100865.78
2022-08-28T07:04:13.763Z,100860.38
2022-08-28T07:06:43.990Z,100864.75
2022-08-28T07:09:11.665Z,100870.06
2022-08-28T07:11:39.148Z,100866.47
2022-08-28T07:14:06.620Z,100876.28
2022-08-28T07:16:38.196Z,100873.59
2022-08-28T07:19:06.659Z,100882.44
2022-08-28T07:21:38.644Z,100869.88
2022-08-28T07:24:06.419Z,100875.19
2022-08-28T07:26:33.091Z,100881.47
2022-08-28T07:29:10.797Z,100887.69
2022-08-28T07:31:41.521Z,100876.94
2022-08-28T07:34:09.719Z,100875.97
2022-08-28T07:36:37.077Z,100876.84
2022-08-28T07:39:05.167Z,100868.75
2022-08-28T07:41:34.365Z,100865.03
2022-08-28T07:44:20.055Z,100866.69
2022-08-28T07:46:46.723Z,100871.13
2022-08-28T07:49:17.347Z,100879.91
2022-08-28T07:51:46.686Z,100876.25
2022-08-28T07:54:15.485Z,100878.81
2022-08-28T07:56:44.375Z,100878.78
2022-08-28T07:59:11.886Z,100879.50
2022-08-28T08:01:43.686Z,100884.69
2022-08-28T08:04:13.240Z,100888.28
2022-08-28T08:06:41.164Z,100889.09
2022-08-28T08:09:11.085Z,100891.75
2022-08-28T08:11:38.242Z,100881.84
2022-08-28T08:14:05.958Z,100898.78
2022-08-28T08:16:35.765Z,100889.78
2022-08-28T08:19:03.375Z,100897.72
2022-08-28T08:21:31.637Z,100889.50
2022-08-28T08:23:58.947Z,100893.84
2022-08-28T08:26:30.124Z,100892.84
2022-08-28T08:28:56.979Z,100898.09
2022-08-28T08:31:35.190Z,100897.22
2022-08-28T08:34:04.339Z,100898.09
2022-08-28T08:36:33.418Z,100900.81
2022-08-28T08:39:00.721Z,100898.06
2022-08-28T08:41:48.134Z,100896.13
2022-08-28T08:44:23.562Z,100894.31
2022-08-28T08:47:22.366Z,100897.03
2022-08-28T08:49:57.210Z,100896.97
2022-08-28T08:52:59.236Z,100893.44
2022-08-28T08:55:32.197Z,100892.03
2022-08-28T08:58:06.729Z,100895.16
2022-08-28T09:00:39.307Z,100888.13
2022-08-28T09:03:13.234Z,100895.00
2022-08-28T09:05:46.190Z,100891.13
2022-08-28T09:08:25.194Z,100889.06
2022-08-28T09:11:00.788Z,100888.03
2022-08-28T09:13:39.656Z,100898.47
2022-08-28T09:16:17.465Z,100899.28
2022-08-28T09:18:44.795Z,100893.09
2022-08-28T09:21:11.729Z,100904.00
2022-08-28T09:23:38.250Z,100898.53
2022-08-28T09:26:12.405Z,100894.75
2022-08-28T09:28:41.554Z,100894.53
2022-08-28T09:31:32.885Z,100902.34
2022-08-28T09:34:23.594Z,100893.38
2022-08-28T09:36:51.216Z,100892.00
2022-08-28T09:39:21.219Z,100895.88
2022-08-28T09:42:14.338Z,100899.47
2022-08-28T09:45:09.418Z,100892.56
2022-08-28T09:48:00.597Z,100890.56
2022-08-28T09:50:38.650Z,100890.88
2022-08-28T09:53:13.991Z,100888.34
2022-08-28T09:55:55.941Z,100886.75
2022-08-28T09:58:28.508Z,100878.66
2022-08-28T10:01:32.252Z,100880.34
2022-08-28T10:04:27.956Z,100880.19
2022-08-28T10:07:13.275Z,100900.69
2022-08-28T10:10:02.511Z,100892.47
2022-08-28T10:13:01.475Z,100879.69
2022-08-28T10:15:49.943Z,100885.31
2022-08-28T10:18:38.850Z,100889.09
2022-08-28T10:21:10.442Z,100889.97
2022-08-28T10:24:24.762Z,100884.44
2022-08-28T10:27:15.274Z,100890.94
2022-08-28T10:30:07.698Z,100898.97
2022-08-28T10:32:51.554Z,100902.78
2022-08-28T10:35:23.068Z,100896.63
2022-08-28T10:38:16.789Z,100903.81
2022-08-28T10:40:52.137Z,100889.53
2022-08-28T10:43:26.789Z,100889.59
2022-08-28T10:45:54.910Z,100885.91
2022-08-28T10:48:31.957Z,100890.91
2022-08-28T10:51:04.716Z,100882.44
2022-08-28T10:53:39.585Z,100893.09
2022-08-28T10:56:25.378Z,100899.25
2022-08-28T10:58:58.633Z,100875.06
2022-08-28T11:01:38.481Z,100886.56
2022-08-28T11:04:25.122Z,100880.25
2022-08-28T11:06:57.679Z,100886.50
2022-08-28T11:09:34.887Z,100886.44
2022-08-28T11:12:27.490Z,100879.09
2022-08-28T11:14:54.411Z,100882.56
2022-08-28T11:17:30.518Z,100879.66
2022-08-28T11:20:17.923Z,100884.06
2022-08-28T11:23:03.228Z,100873.19
2022-08-28T11:26:02.248Z,100881.22
2022-08-28T11:28:34.720Z,100891.19
2022-08-28T11:31:01.339Z,100880.44
2022-08-28T11:33:37.094Z,100880.38
2022-08-28T11:36:33.508Z,100882.06
2022-08-28T11:39:29.879Z,100887.22
2022-08-28T11:42:11.454Z,100888.78
2022-08-28T11:44:44.020Z,100880.59
2022-08-28T11:47:44.768Z,100878.81
2022-08-28T11:50:21.829Z,100879.78
2022-08-28T11:52:57.942Z,100874.25
2022-08-28T11:55:48.064Z,100879.47
2022-08-28T11:58:18.730Z,100870.50
2022-08-28T12:01:00.610Z,100859.84
2022-08-28T12:03:34.443Z,100872.44
2022-08-28T12:06:02.303Z,100879.56
2022-08-28T12:08:47.676Z,100877.69
2022-08-28T12:12:04.049Z,100880.13
2022-08-28T12:14:30.557Z,100869.25
2022-08-28T12:16:59.820Z,100862.09
2022-08-28T12:19:43.031Z,100860.16
2022-08-28T12:22:26.404Z,100861.78
2022-08-28T12:24:58.009Z,100848.97
2022-08-28T12:27:25.761Z,100856.78
2022-08-28T12:29:57.672Z,100848.66
2022-08-28T12:32:48.793Z,100848.63
2022-08-28T12:35:21.020Z,100856.59
2022-08-28T12:37:53.836Z,100862.00
2022-08-28T12:40:30.475Z,100862.84
2022-08-28T12:43:06.777Z,100859.22
2022-08-28T12:45:45.543Z,100854.66
2022-08-28T12:48:21.566Z,100842.97
2022-08-28T12:50:48.882Z,100867.06
2022-08-28T12:53:18.207Z,100845.56
2022-08-28T12:55:46.568Z,100847.31
2022-08-28T12:58:26.704Z,100857.94
2022-08-28T13:00:58.204Z,100859.69
2022-08-28T13:03:25.283Z,100854.28
2022-08-28T13:06:05.389Z,100854.34
2022-08-28T13:08:34.159Z,100845.31
2022-08-28T13:11:01.292Z,100844.25
2022-08-28T13:13:36.027Z,100845.03
2022-08-28T13:16:10.940Z,100841.38
2022-08-28T13:19:11.187Z,100845.09
2022-08-28T13:21:52.042Z,100845.94
2022-08-28T13:24:24.201Z,100854.84
2022-08-28T13:27:15.989Z,100842.97
2022-08-28T13:29:48.711Z,100831.19
2022-08-28T13:32:18.037Z,100825.66
2022-08-28T13:35:09.606Z,100831.88
2022-08-28T13:37:57.166Z,100828.28
2022-08-28T13:40:56.330Z,100836.97
2022-08-28T13:43:16.528Z,100835.78
2022-08-28T13:45:45.385Z,100825.31
2022-08-28T13:48:13.220Z,100824.91
2022-08-28T13:50:46.844Z,100834.50
2022-08-28T13:53:15.646Z,100825.81
2022-08-28T13:55:42.353Z,100831.22
2022-08-28T13:58:09.031Z,100828.56
2022-08-28T14:00:40.777Z,100835.59
2022-08-28T14:03:26.067Z,100840.94
2022-08-28T14:05:53.099Z,100837.88
2022-08-28T14:08:19.627Z,100830.97
2022-08-28T14:10:46.508Z,100829.88
2022-08-28T14:13:13.937Z,100830.50
2022-08-28T14:15:40.558Z,100833.22
2022-08-28T14:18:07.380Z,100833.50
2022-08-28T14:20:34.129Z,100829.97
2022-08-28T14:23:00.632Z,100828.22
2022-08-28T14:25:27.107Z,100826.34
2022-08-28T14:27:55.702Z,100825.50
2022-08-28T14:30:22.816Z,100821.97
2022-08-28T14:32:49.391Z,100821.81
2022-08-28T14:35:15.969Z,100815.31
2022-08-28T14:37:42.838Z,100820.50
2022-08-28T14:40:10.339Z,100817.56
2022-08-28T14:42:37.536Z,100815.69
2022-08-28T14:45:04.501Z,100818.97
2022-08-28T14:47:30.982Z,100821.56
2022-08-28T14:49:57.567Z,100826.31
2022-08-28T14:52:24.124Z,100830.06
2022-08-28T14:54:50.667Z,100823.09
2022-08-28T14:57:17.570Z,100823.97
2022-08-28T14:59:45.309Z,100814.91
2022-08-28T15:02:13.566Z,100814.91
2022-08-28T15:04:40.096Z,100831.28
2022-08-28T15:07:10.915Z,100819.00
2022-08-28T15:09:40.812Z,100812.78
2022-08-28T15:12:07.512Z,100829.06
2022-08-28T15:14:35.537Z,100818.34
2022-08-28T15:17:03.376Z,100823.72
2022-08-28T15:19:30.132Z,100822.88
2022-08-28T15:21:57.999Z,100813.94
2022-08-28T15:24:28.425Z,100826.47
2022-08-28T15:26:55.442Z,100830.06
2022-08-28T15:29:22.211Z,100841.69
2022-08-28T15:31:50.357Z,100829.13
2022-08-28T15:34:25.041Z,100825.50
2022-08-28T15:36:54.742Z,100821.81
2022-08-28T15:39:41.314Z,100832.53
2022-08-28T15:42:08.382Z,100832.59
2022-08-28T15:44:34.906Z,100830.56
2022-08-28T15:47:02.757Z,100827.59
2022-08-28T15:49:32.316Z,100829.75
2022-08-28T15:52:05.677Z,100829.38
2022-08-28T15:54:32.463Z,100840.91
2022-08-28T15:56:59.338Z,100840.63
2022-08-28T15:59:25.857Z,100834.25
2022-08-28T16:02:12.840Z,100843.97
2022-08-28T16:04:39.472Z,100847.28
2022-08-28T16:07:06.742Z,100851.00
2022-08-28T16:09:33.321Z,100840.88
2022-08-28T16:11:59.889Z,100840.41
2022-08-28T16:14:26.425Z,100843.59
2022-08-28T16:16:52.910Z,100845.78
2022-08-28T16:19:19.555Z,100854.53
2022-08-28T16:21:46.200Z,100850.06
2022-08-28T16:24:12.775Z,100864.69
2022-08-28T16:26:39.497Z,100860.69
2022-08-28T16:29:06.074Z,100867.28
2022-08-28T16:31:34.333Z,100867.09
2022-08-28T16:34:02.941Z,100866.25
2022-08-28T16:36:30.073Z,100872.06
2022-08-28T16:39:00.561Z,100860.28
2022-08-28T16:41:31.904Z,100859.44
2022-08-28T16:43:59.158Z,100858.00
2022-08-28T16:46:27.278Z,100868.88
2022-08-28T16:48:54.484Z,100865.16
2022-08-28T16:51:26.785Z,100869.50
2022-08-28T16:53:54.764Z,100875.13
2022-08-28T16:56:23.655Z,100864.75
2022-08-28T16:58:53.021Z,100874.28
2022-08-28T17:01:23.868Z,100875.06
2022-08-28T17:03:52.634Z,100869.69
2022-08-28T17:06:23.704Z,100866.78
2022-08-28T17:08:55.846Z,100869.19
2022-08-28T17:11:24.432Z,100864.09
2022-08-28T17:13:51.253Z,100867.31
2022-08-28T17:16:18.846Z,100877.56
2022-08-28T17:18:47.995Z,100877.53
2022-08-28T17:21:37.637Z,100879.09
2022-08-28T17:24:05.466Z,100876.81
2022-08-28T17:26:32.149Z,100880.50
2022-08-28T17:28:58.672Z,100878.72
2022-08-28T17:31:25.267Z,100886.63
2022-08-28T17:33:52.348Z,100887.31
2022-08-28T17:36:30.737Z,100885.22
2022-08-28T17:39:05.874Z,100882.16
2022-08-28T17:41:33.487Z,100874.59
2022-08-28T17:44:01.162Z,100881.25
2022-08-28T17:46:28.207Z,100874.38
2022-08-28T17:48:56.031Z,100881.03
2022-08-28T17:51:33.743Z,100881.41
2022-08-28T17:54:10.444Z,100884.50
2022-08-28T17:56:36.929Z,100883.97
2022-08-28T17:59:04.379Z,100887.84
2022-08-28T18:01:30.996Z,100895.31
2022-08-28T18:03:57.774Z,100897.34
2022-08-28T18:06:24.943Z,100894.00
2022-08-28T18:08:51.922Z,100896.91
2022-08-28T18:11:19.153Z,100896.25
2022-08-28T18:13:46.457Z,100904.53
2022-08-28T18:16:13.616Z,100917.28
2022-08-28T18:18:41.121Z,100913.06
2022-08-28T18:21:10.397Z,100914.13
2022-08-28T18:23:37.391Z,100919.69
2022-08-28T18:26:03.885Z,100921.66
2022-08-28T18:28:31.944Z,100925.34
2022-08-28T18:30:58.620Z,100921.94
2022-08-28T18:33:25.362Z,100928.31
2022-08-28T18:35:53.534Z,100931.13
2022-08-28T18:38:22.289Z,100933.03
2022-08-28T18:40:49.944Z,100930.47
2022-08-28T18:43:20.205Z,100926.16
2022-08-28T18:45:47.375Z,100936.09
2022-08-28T18:48:14.808Z,100944.25
2022-08-28T18:50:46.128Z,100950.63
2022-08-28T18:53:14.199Z,100941.81
2022-08-28T18:55:40.793Z,100950.78
2022-08-28T18:58:07.387Z,100946.38
2022-08-28T19:00:33.902Z,100959.84
2022-08-28T19:03:00.685Z,100959.03
2022-08-28T19:05:27.441Z,100960.00
2022-08-28T19:07:54.040Z,100962.72
2022-08-28T19:10:32.543Z,100958.31
2022-08-28T19:13:01.106Z,100958.41
2022-08-28T19:15:28.488Z,100961.09
2022-08-28T19:17:55.241Z,100962.06
2022-08-28T19:20:22.187Z,100972.81
2022-08-28T19:22:49.309Z,100971.13
2022-08-28T19:25:28.887Z,100972.97
2022-08-28T19:27:59.138Z,100971.28
2022-08-28T19:30:28.678Z,100982.06
2022-08-28T19:32:55.197Z,100984.78
2022-08-28T19:35:24.247Z,100987.50
2022-08-28T19:37:52.299Z,100980.41
2022-08-28T19:40:20.735Z,100985.81
2022-08-28T19:42:49.792Z,100988.53
2022-08-28T19:45:17.770Z,100985.00
2022-08-28T19:47:44.896Z,100996.59
2022-08-28T19:50:14.083Z,100997.50
2022-08-28T19:52:41.886Z,101000.22
2022-08-28T19:55:17.629Z,101004.72
2022-08-28T19:57:46.118Z,101006.50
2022-08-28T20:00:15.080Z,101007.38
2022-08-28T20:02:41.876Z,101007.41
2022-08-28T20:05:08.995Z,101015.47
2022-08-28T20:07:35.601Z,101015.47
2022-08-28T20:10:02.260Z,101014.59
2022-08-28T20:12:28.785Z,101020.88
2022-08-28T20:14:59.021Z,101019.97
2022-08-28T20:17:29.470Z,101036.00
2022-08-28T20:20:02.345Z,101035.13
2022-08-28T20:22:31.760Z,101025.34
2022-08-28T20:24:59.412Z,101034.31
2022-08-28T20:27:26.440Z,101037.00
2022-08-28T20:29:53.124Z,101036.13
2022-08-28T20:32:19.718Z,101037.91
2022-08-28T20:34:46.633Z,101037.91
2022-08-28T20:37:13.575Z,101038.81
2022-08-28T20:39:41.791Z,101038.84
2022-08-28T20:42:09.804Z,101044.19
2022-08-28T20:44:36.534Z,101049.56
2022-08-28T20:47:04.125Z,101051.31
2022-08-28T20:49:30.623Z,101044.22
2022-08-28T20:51:57.553Z,101050.44
2022-08-28T20:54:38.566Z,101053.16
2022-08-28T20:57:11.584Z,101043.38
2022-08-28T20:59:40.727Z,101052.28
2022-08-28T21:02:17.347Z,101049.59
2022-08-28T21:04:45.666Z,101057.63
2022-08-28T21:07:14.081Z,101054.97
2022-08-28T21:10:03.809Z,101054.97
2022-08-28T21:12:28.001Z,101054.03
2022-08-28T21:14:54.623Z,101056.72
2022-08-28T21:17:28.697Z,101050.50
2022-08-28T21:19:56.637Z,101052.22
2022-08-28T21:22:23.247Z,101050.44
2022-08-28T21:24:49.957Z,101058.47
2022-08-28T21:27:16.528Z,101052.19
2022-08-28T21:29:45.842Z,101053.97
2022-08-28T21:32:13.076Z,101050.44
2022-08-28T21:34:39.781Z,101048.66
2022-08-28T21:37:06.543Z,101055.75
2022-08-28T21:39:33.530Z,101042.41
2022-08-28T21:42:00.191Z,101053.06
2022-08-28T21:44:26.788Z,101049.47
2022-08-28T21:46:53.348Z,101055.66
2022-08-28T21:49:20.093Z,101055.69
2022-08-28T21:51:47.052Z,101049.41
2022-08-28T21:54:14.100Z,101049.41
2022-08-28T21:56:40.631Z,101052.94
2022-08-28T21:59:07.217Z,101052.91
2022-08-28T22:01:34.179Z,101051.09
2022-08-28T22:04:01.149Z,101054.66
2022-08-28T22:06:27.675Z,101053.75
2022-08-28T22:08:55.248Z,101062.59
2022-08-28T22:11:24.761Z,101059.94
2022-08-28T22:13:52.541Z,101059.03
2022-08-28T22:16:19.743Z,101055.47
2022-08-28T22:18:46.539Z,101059.91
2022-08-28T22:21:34.111Z,101060.75
2022-08-28T22:24:01.391Z,101060.66
2022-08-28T22:26:28.470Z,101058.91
2022-08-28T22:28:55.894Z,101062.41
2022-08-28T22:31:23.134Z,101065.06
2022-08-28T22:33:50.315Z,101065.94
2022-08-28T22:36:17.476Z,101074.75
2022-08-28T22:38:47.072Z,101068.53
2022-08-28T22:41:20.431Z,101068.47
2022-08-28T22:43:49.761Z,101066.72
2022-08-28T22:46:18.692Z,101072.03
2022-08-28T22:48:46.013Z,101064.00
2022-08-28T22:51:15.539Z,101064.88
2022-08-28T22:53:43.646Z,101065.75
2022-08-28T22:56:11.779Z,101068.38
2022-08-28T22:58:38.661Z,101068.38
2022-08-28T23:01:09.957Z,101067.47
2022-08-28T23:03:36.878Z,101067.41
2022-08-28T23:06:04.013Z,101072.72
2022-08-28T23:08:33.833Z,101070.03
2022-08-28T23:11:01.197Z,101063.81
2022-08-28T23:13:29.457Z,101068.22
2022-08-28T23:15:56.056Z,101072.66
2022-08-28T23:18:22.823Z,101073.50
2022-08-28T23:20:50.518Z,101076.16
2022-08-28T23:23:17.433Z,101076.16
2022-08-28T23:25:44.135Z,101067.25
2022-08-28T23:28:10.670Z,101069.91
2022-08-28T23:30:38.979Z,101069.00
2022-08-28T23:33:08.471Z,101067.19
2022-08-28T23:35:35.997Z,101068.94
2022-08-28T23:38:04.005Z,101070.69
2022-08-28T23:40:33.147Z,101068.91
2022-08-28T23:43:02.812Z,101065.34
2022-08-28T23:45:30.001Z,101060.03
2022-08-28T23:47:56.920Z,101060.03
2022-08-28T23:50:23.618Z,101059.97
2022-08-28T23:52:51.749Z,101051.13
2022-08-28T23:55:19.629Z,101043.09
2022-08-28T23:57:46.223Z,101047.50
